sensor_id;sensor_type;location;lat;lon;timestamp;P1;durP1;ratioP1;P2;durP2;ratioP2
9485;SDS011;4781;48.776;9.200;2023-08-30T00:01:07;3.85;;;2.72;;
9485;SDS011;4781;48.776;9.200;2023-08-30T00:03:35;3.87;;;2.67;;
9485;SDS011;4781;48.776;9.200;2023-08-30T00:06:04;3.87;;;2.25;;
9485;SDS011;4781;48.776;9.200;2023-08-30T00:08:33;4.03;;;2.47;;
9485;SDS011;4781;48.776;9.200;2023-08-30T00:11:01;4.42;;;2.27;;
9485;SDS011;4781;48.776;9.200;2023-08-30T00:13:31;4.15;;;2.58;;
9485;SDS011;4781;48.776;9.200;2023-08-30T00:16:00;4.85;;;2.50;;
9485;SDS011;4781;48.776;9.200;2023-08-30T00:18:28;4.30;;;2.45;;
9485;SDS011;4781;48.776;9.200;2023-08-30T00:20:57;4.45;;;2.67;;
9485;SDS011;4781;48.776;9.200;2023-08-30T00:23:26;3.92;;;2.27;;
9485;SDS011;4781;48.776;9.200;2023-08-30T00:25:54;4.30;;;2.25;;
9485;SDS011;4781;48.776;9.200;2023-08-30T00:28:23;3.65;;;2.02;;
9485;SDS011;4781;48.776;9.200;2023-08-30T00:30:54;4.33;;;2.20;;
9485;SDS011;4781;48.776;9.200;2023-08-30T00:33:22;4.53;;;2.70;;
9485;SDS011;4781;48.776;9.200;2023-08-30T00:36:00;3.90;;;2.52;;
9485;SDS011;4781;48.776;9.200;2023-08-30T00:38:28;4.70;;;2.52;;
9485;SDS011;4781;48.776;9.200;2023-08-30T00:40:57;3.75;;;2.60;;
9485;SDS011;4781;48.776;9.200;2023-08-30T00:43:25;4.42;;;2.90;;
9485;SDS011;4781;48.776;9.200;2023-08-30T00:45:54;5.10;;;2.77;;
9485;SDS011;4781;48.776;9.200;2023-08-30T00:48:22;4.50;;;2.65;;
9485;SDS011;4781;48.776;9.200;2023-08-30T00:50:51;5.47;;;2.60;;
9485;SDS011;4781;48.776;9.200;2023-08-30T00:53:19;5.33;;;2.90;;
9485;SDS011;4781;48.776;9.200;2023-08-30T00:55:48;4.50;;;2.85;;
9485;SDS011;4781;48.776;9.200;2023-08-30T00:58:16;5.03;;;2.80;;
9485;SDS011;4781;48.776;9.200;2023-08-30T01:00:45;4.40;;;2.90;;
9485;SDS011;4781;48.776;9.200;2023-08-30T01:03:14;5.95;;;2.98;;
9485;SDS011;4781;48.776;9.200;2023-08-30T01:05:42;4.00;;;2.65;;
9485;SDS011;4781;48.776;9.200;2023-08-30T01:08:11;4.70;;;2.87;;
9485;SDS011;4781;48.776;9.200;2023-08-30T01:13:24;5.17;;;3.10;;
9485;SDS011;4781;48.776;9.200;2023-08-30T01:15:56;4.72;;;3.22;;
9485;SDS011;4781;48.776;9.200;2023-08-30T01:18:26;4.37;;;2.83;;
9485;SDS011;4781;48.776;9.200;2023-08-30T01:20:58;4.35;;;2.65;;
9485;SDS011;4781;48.776;9.200;2023-08-30T01:23:36;7.05;;;3.02;;
9485;SDS011;4781;48.776;9.200;2023-08-30T01:29:13;4.70;;;3.02;;
9485;SDS011;4781;48.776;9.200;2023-08-30T01:31:45;6.45;;;3.17;;
9485;SDS011;4781;48.776;9.200;2023-08-30T01:34:15;4.22;;;2.65;;
9485;SDS011;4781;48.776;9.200;2023-08-30T01:36:44;4.67;;;3.20;;
9485;SDS011;4781;48.776;9.200;2023-08-30T01:39:13;4.80;;;2.75;;
9485;SDS011;4781;48.776;9.200;2023-08-30T01:41:43;4.00;;;2.80;;
9485;SDS011;4781;48.776;9.200;2023-08-30T01:44:12;4.25;;;2.85;;
9485;SDS011;4781;48.776;9.200;2023-08-30T01:47:03;5.67;;;3.17;;
9485;SDS011;4781;48.776;9.200;2023-08-30T01:49:32;4.87;;;2.98;;
9485;SDS011;4781;48.776;9.200;2023-08-30T01:52:04;5.87;;;3.10;;
9485;SDS011;4781;48.776;9.200;2023-08-30T01:54:34;4.03;;;2.50;;
9485;SDS011;4781;48.776;9.200;2023-08-30T01:57:05;4.67;;;2.80;;
9485;SDS011;4781;48.776;9.200;2023-08-30T01:59:33;5.08;;;2.87;;
9485;SDS011;4781;48.776;9.200;2023-08-30T02:02:01;6.72;;;2.95;;
9485;SDS011;4781;48.776;9.200;2023-08-30T02:04:30;4.62;;;3.00;;
9485;SDS011;4781;48.776;9.200;2023-08-30T02:07:03;11.45;;;2.95;;
9485;SDS011;4781;48.776;9.200;2023-08-30T02:09:37;4.37;;;2.50;;
9485;SDS011;4781;48.776;9.200;2023-08-30T02:12:10;4.95;;;2.70;;
9485;SDS011;4781;48.776;9.200;2023-08-30T02:14:43;4.67;;;2.77;;
9485;SDS011;4781;48.776;9.200;2023-08-30T02:17:15;3.65;;;2.58;;
9485;SDS011;4781;48.776;9.200;2023-08-30T02:19:44;3.92;;;2.52;;
9485;SDS011;4781;48.776;9.200;2023-08-30T02:22:13;3.55;;;2.15;;
9485;SDS011;4781;48.776;9.200;2023-08-30T02:24:42;4.08;;;2.30;;
9485;SDS011;4781;48.776;9.200;2023-08-30T02:27:10;4.45;;;2.70;;
9485;SDS011;4781;48.776;9.200;2023-08-30T02:29:39;4.12;;;2.40;;
9485;SDS011;4781;48.776;9.200;2023-08-30T02:32:07;3.25;;;2.05;;
9485;SDS011;4781;48.776;9.200;2023-08-30T02:34:35;4.00;;;2.50;;
9485;SDS011;4781;48.776;9.200;2023-08-30T02:37:04;4.30;;;2.42;;
9485;SDS011;4781;48.776;9.200;2023-08-30T02:39:32;3.87;;;2.55;;
9485;SDS011;4781;48.776;9.200;2023-08-30T02:42:01;3.92;;;2.22;;
9485;SDS011;4781;48.776;9.200;2023-08-30T02:44:29;4.50;;;2.80;;
9485;SDS011;4781;48.776;9.200;2023-08-30T02:46:57;4.17;;;2.50;;
9485;SDS011;4781;48.776;9.200;2023-08-30T02:49:26;3.25;;;2.17;;
9485;SDS011;4781;48.776;9.200;2023-08-30T02:51:54;3.55;;;2.33;;
9485;SDS011;4781;48.776;9.200;2023-08-30T02:54:23;6.45;;;3.10;;
9485;SDS011;4781;48.776;9.200;2023-08-30T02:56:51;4.08;;;2.65;;
9485;SDS011;4781;48.776;9.200;2023-08-30T02:59:20;4.47;;;2.80;;
9485;SDS011;4781;48.776;9.200;2023-08-30T03:01:48;4.15;;;2.58;;
9485;SDS011;4781;48.776;9.200;2023-08-30T03:04:17;4.17;;;2.90;;
9485;SDS011;4781;48.776;9.200;2023-08-30T03:06:45;5.33;;;3.02;;
9485;SDS011;4781;48.776;9.200;2023-08-30T03:09:13;4.08;;;2.60;;
9485;SDS011;4781;48.776;9.200;2023-08-30T03:11:42;3.55;;;2.33;;
9485;SDS011;4781;48.776;9.200;2023-08-30T03:14:10;4.80;;;2.92;;
9485;SDS011;4781;48.776;9.200;2023-08-30T03:16:39;3.80;;;2.55;;
9485;SDS011;4781;48.776;9.200;2023-08-30T03:19:09;4.10;;;2.50;;
9485;SDS011;4781;48.776;9.200;2023-08-30T03:21:38;3.75;;;2.37;;
9485;SDS011;4781;48.776;9.200;2023-08-30T03:24:06;4.70;;;2.33;;
9485;SDS011;4781;48.776;9.200;2023-08-30T03:26:35;4.12;;;2.40;;
9485;SDS011;4781;48.776;9.200;2023-08-30T03:29:03;4.40;;;2.58;;
9485;SDS011;4781;48.776;9.200;2023-08-30T03:31:31;3.98;;;2.80;;
9485;SDS011;4781;48.776;9.200;2023-08-30T03:34:00;3.70;;;2.50;;
9485;SDS011;4781;48.776;9.200;2023-08-30T03:36:28;4.10;;;2.80;;
9485;SDS011;4781;48.776;9.200;2023-08-30T03:38:57;3.87;;;2.45;;
9485;SDS011;4781;48.776;9.200;2023-08-30T03:41:25;4.10;;;2.50;;
9485;SDS011;4781;48.776;9.200;2023-08-30T03:43:53;3.90;;;2.30;;
9485;SDS011;4781;48.776;9.200;2023-08-30T03:46:22;4.25;;;2.50;;
9485;SDS011;4781;48.776;9.200;2023-08-30T03:48:50;4.85;;;2.70;;
9485;SDS011;4781;48.776;9.200;2023-08-30T03:51:18;4.60;;;2.98;;
9485;SDS011;4781;48.776;9.200;2023-08-30T03:53:47;4.22;;;2.65;;
9485;SDS011;4781;48.776;9.200;2023-08-30T03:56:15;4.83;;;2.95;;
9485;SDS011;4781;48.776;9.200;2023-08-30T03:58:44;4.20;;;2.30;;
9485;SDS011;4781;48.776;9.200;2023-08-30T04:01:13;4.53;;;2.65;;
9485;SDS011;4781;48.776;9.200;2023-08-30T04:03:42;4.22;;;2.37;;
9485;SDS011;4781;48.776;9.200;2023-08-30T04:06:10;3.80;;;2.30;;
9485;SDS011;4781;48.776;9.200;2023-08-30T04:08:38;4.70;;;2.45;;
9485;SDS011;4781;48.776;9.200;2023-08-30T04:11:07;3.45;;;2.05;;
9485;SDS011;4781;48.776;9.200;2023-08-30T04:13:35;4.47;;;2.85;;
9485;SDS011;4781;48.776;9.200;2023-08-30T04:16:03;4.40;;;2.65;;
9485;SDS011;4781;48.776;9.200;2023-08-30T04:18:32;4.65;;;2.90;;
9485;SDS011;4781;48.776;9.200;2023-08-30T04:21:00;3.65;;;2.30;;
9485;SDS011;4781;48.776;9.200;2023-08-30T04:23:29;4.65;;;2.75;;
9485;SDS011;4781;48.776;9.200;2023-08-30T04:25:57;5.15;;;2.58;;
9485;SDS011;4781;48.776;9.200;2023-08-30T04:28:26;4.17;;;2.72;;
9485;SDS011;4781;48.776;9.200;2023-08-30T04:30:55;3.95;;;2.47;;
9485;SDS011;4781;48.776;9.200;2023-08-30T04:33:24;4.58;;;3.00;;
9485;SDS011;4781;48.776;9.200;2023-08-30T04:35:53;4.62;;;3.20;;
9485;SDS011;4781;48.776;9.200;2023-08-30T04:38:22;4.55;;;2.70;;
9485;SDS011;4781;48.776;9.200;2023-08-30T04:40:50;4.87;;;3.15;;
9485;SDS011;4781;48.776;9.200;2023-08-30T04:43:26;4.67;;;2.95;;
9485;SDS011;4781;48.776;9.200;2023-08-30T04:45:55;5.75;;;3.27;;
9485;SDS011;4781;48.776;9.200;2023-08-30T04:48:23;5.80;;;3.12;;
9485;SDS011;4781;48.776;9.200;2023-08-30T04:50:58;4.42;;;2.87;;
9485;SDS011;4781;48.776;9.200;2023-08-30T04:53:31;5.30;;;3.25;;
9485;SDS011;4781;48.776;9.200;2023-08-30T04:56:00;5.85;;;3.40;;
9485;SDS011;4781;48.776;9.200;2023-08-30T04:58:32;5.53;;;3.50;;
9485;SDS011;4781;48.776;9.200;2023-08-30T05:01:00;5.47;;;3.25;;
9485;SDS011;4781;48.776;9.200;2023-08-30T05:03:28;5.95;;;3.40;;
9485;SDS011;4781;48.776;9.200;2023-08-30T05:05:59;5.42;;;3.33;;
9485;SDS011;4781;48.776;9.200;2023-08-30T05:08:28;5.17;;;3.10;;
9485;SDS011;4781;48.776;9.200;2023-08-30T05:10:56;6.25;;;3.45;;
9485;SDS011;4781;48.776;9.200;2023-08-30T05:13:25;4.85;;;3.08;;
9485;SDS011;4781;48.776;9.200;2023-08-30T05:15:55;4.78;;;2.87;;
9485;SDS011;4781;48.776;9.200;2023-08-30T05:18:23;5.25;;;3.20;;
9485;SDS011;4781;48.776;9.200;2023-08-30T05:20:51;5.97;;;3.50;;
9485;SDS011;4781;48.776;9.200;2023-08-30T05:23:20;6.10;;;3.60;;
9485;SDS011;4781;48.776;9.200;2023-08-30T05:25:48;5.40;;;3.30;;
9485;SDS011;4781;48.776;9.200;2023-08-30T05:28:17;4.72;;;3.02;;
9485;SDS011;4781;48.776;9.200;2023-08-30T05:30:45;5.53;;;3.70;;
9485;SDS011;4781;48.776;9.200;2023-08-30T05:33:13;6.40;;;3.30;;
9485;SDS011;4781;48.776;9.200;2023-08-30T05:35:42;5.53;;;3.27;;
9485;SDS011;4781;48.776;9.200;2023-08-30T05:38:10;5.78;;;3.58;;
9485;SDS011;4781;48.776;9.200;2023-08-30T05:40:39;5.87;;;3.70;;
9485;SDS011;4781;48.776;9.200;2023-08-30T05:43:09;5.15;;;3.60;;
9485;SDS011;4781;48.776;9.200;2023-08-30T05:45:37;5.80;;;3.50;;
9485;SDS011;4781;48.776;9.200;2023-08-30T05:48:06;5.90;;;3.72;;
9485;SDS011;4781;48.776;9.200;2023-08-30T05:50:34;6.05;;;3.80;;
9485;SDS011;4781;48.776;9.200;2023-08-30T05:53:03;7.55;;;3.70;;
9485;SDS011;4781;48.776;9.200;2023-08-30T05:55:31;6.10;;;3.50;;
9485;SDS011;4781;48.776;9.200;2023-08-30T05:57:59;5.95;;;3.45;;
9485;SDS011;4781;48.776;9.200;2023-08-30T06:00:28;5.83;;;3.98;;
9485;SDS011;4781;48.776;9.200;2023-08-30T06:02:56;6.33;;;4.05;;
9485;SDS011;4781;48.776;9.200;2023-08-30T06:05:25;5.53;;;3.58;;
9485;SDS011;4781;48.776;9.200;2023-08-30T06:07:54;5.42;;;3.60;;
9485;SDS011;4781;48.776;9.200;2023-08-30T06:10:23;6.08;;;3.70;;
9485;SDS011;4781;48.776;9.200;2023-08-30T06:12:51;6.58;;;3.98;;
9485;SDS011;4781;48.776;9.200;2023-08-30T06:15:19;6.28;;;3.87;;
9485;SDS011;4781;48.776;9.200;2023-08-30T06:17:48;5.75;;;3.45;;
9485;SDS011;4781;48.776;9.200;2023-08-30T06:20:16;5.78;;;3.75;;
9485;SDS011;4781;48.776;9.200;2023-08-30T06:22:45;5.17;;;3.27;;
9485;SDS011;4781;48.776;9.200;2023-08-30T06:25:13;5.83;;;3.60;;
9485;SDS011;4781;48.776;9.200;2023-08-30T06:27:42;5.42;;;3.58;;
9485;SDS011;4781;48.776;9.200;2023-08-30T06:30:14;6.93;;;3.97;;
9485;SDS011;4781;48.776;9.200;2023-08-30T06:32:42;7.58;;;3.60;;
9485;SDS011;4781;48.776;9.200;2023-08-30T06:35:11;5.35;;;3.60;;
9485;SDS011;4781;48.776;9.200;2023-08-30T06:37:39;6.08;;;3.90;;
9485;SDS011;4781;48.776;9.200;2023-08-30T06:40:08;5.60;;;3.70;;
9485;SDS011;4781;48.776;9.200;2023-08-30T06:42:37;6.15;;;3.62;;
9485;SDS011;4781;48.776;9.200;2023-08-30T06:45:05;5.87;;;3.83;;
9485;SDS011;4781;48.776;9.200;2023-08-30T06:47:34;6.30;;;3.90;;
9485;SDS011;4781;48.776;9.200;2023-08-30T06:50:03;5.47;;;3.62;;
9485;SDS011;4781;48.776;9.200;2023-08-30T06:52:34;5.95;;;3.52;;
9485;SDS011;4781;48.776;9.200;2023-08-30T06:55:02;6.60;;;3.67;;
9485;SDS011;4781;48.776;9.200;2023-08-30T06:57:31;6.90;;;4.08;;
9485;SDS011;4781;48.776;9.200;2023-08-30T07:00:00;6.45;;;3.72;;
9485;SDS011;4781;48.776;9.200;2023-08-30T07:02:30;6.03;;;4.00;;
9485;SDS011;4781;48.776;9.200;2023-08-30T07:04:58;6.90;;;4.20;;
9485;SDS011;4781;48.776;9.200;2023-08-30T07:07:27;6.37;;;3.67;;
9485;SDS011;4781;48.776;9.200;2023-08-30T07:09:55;6.47;;;4.15;;
9485;SDS011;4781;48.776;9.200;2023-08-30T07:12:23;5.60;;;3.67;;
9485;SDS011;4781;48.776;9.200;2023-08-30T07:14:53;6.80;;;4.03;;
9485;SDS011;4781;48.776;9.200;2023-08-30T07:17:22;6.12;;;3.75;;
9485;SDS011;4781;48.776;9.200;2023-08-30T07:19:50;7.40;;;3.87;;
9485;SDS011;4781;48.776;9.200;2023-08-30T07:22:18;6.20;;;4.00;;
9485;SDS011;4781;48.776;9.200;2023-08-30T07:24:47;7.65;;;4.28;;
9485;SDS011;4781;48.776;9.200;2023-08-30T07:27:15;5.05;;;2.95;;
9485;SDS011;4781;48.776;9.200;2023-08-30T07:29:44;7.33;;;3.37;;
9485;SDS011;4781;48.776;9.200;2023-08-30T07:32:12;5.17;;;3.25;;
9485;SDS011;4781;48.776;9.200;2023-08-30T07:34:41;4.78;;;2.90;;
9485;SDS011;4781;48.776;9.200;2023-08-30T07:37:21;5.00;;;3.08;;
9485;SDS011;4781;48.776;9.200;2023-08-30T07:39:51;4.20;;;2.50;;
9485;SDS011;4781;48.776;9.200;2023-08-30T07:42:19;5.08;;;3.22;;
9485;SDS011;4781;48.776;9.200;2023-08-30T07:44:48;4.70;;;3.20;;
9485;SDS011;4781;48.776;9.200;2023-08-30T07:47:16;6.00;;;3.08;;
9485;SDS011;4781;48.776;9.200;2023-08-30T07:49:45;4.42;;;2.87;;
9485;SDS011;4781;48.776;9.200;2023-08-30T07:52:13;4.20;;;2.52;;
9485;SDS011;4781;48.776;9.200;2023-08-30T07:54:42;4.15;;;2.45;;
9485;SDS011;4781;48.776;9.200;2023-08-30T07:57:10;4.70;;;2.67;;
9485;SDS011;4781;48.776;9.200;2023-08-30T07:59:38;5.35;;;3.10;;
9485;SDS011;4781;48.776;9.200;2023-08-30T08:02:07;5.22;;;3.05;;
9485;SDS011;4781;48.776;9.200;2023-08-30T08:04:35;6.65;;;3.08;;
9485;SDS011;4781;48.776;9.200;2023-08-30T08:07:04;5.08;;;3.02;;
9485;SDS011;4781;48.776;9.200;2023-08-30T08:09:32;5.35;;;2.87;;
9485;SDS011;4781;48.776;9.200;2023-08-30T08:12:01;5.35;;;2.60;;
9485;SDS011;4781;48.776;9.200;2023-08-30T08:14:30;5.47;;;2.80;;
9485;SDS011;4781;48.776;9.200;2023-08-30T08:16:58;8.75;;;3.30;;
9485;SDS011;4781;48.776;9.200;2023-08-30T08:19:26;5.00;;;2.77;;
9485;SDS011;4781;48.776;9.200;2023-08-30T08:21:55;5.75;;;3.02;;
9485;SDS011;4781;48.776;9.200;2023-08-30T08:24:23;5.40;;;3.05;;
9485;SDS011;4781;48.776;9.200;2023-08-30T08:26:52;5.75;;;3.25;;
9485;SDS011;4781;48.776;9.200;2023-08-30T08:29:20;4.62;;;2.77;;
9485;SDS011;4781;48.776;9.200;2023-08-30T08:31:49;5.17;;;2.90;;
9485;SDS011;4781;48.776;9.200;2023-08-30T08:34:17;5.20;;;3.17;;
9485;SDS011;4781;48.776;9.200;2023-08-30T08:36:45;6.53;;;3.40;;
9485;SDS011;4781;48.776;9.200;2023-08-30T08:39:14;6.28;;;3.00;;
9485;SDS011;4781;48.776;9.200;2023-08-30T08:41:44;5.92;;;2.90;;
9485;SDS011;4781;48.776;9.200;2023-08-30T08:44:13;4.78;;;3.12;;
9485;SDS011;4781;48.776;9.200;2023-08-30T08:46:43;4.78;;;3.02;;
9485;SDS011;4781;48.776;9.200;2023-08-30T08:49:12;4.03;;;2.35;;
9485;SDS011;4781;48.776;9.200;2023-08-30T08:51:43;5.97;;;2.62;;
9485;SDS011;4781;48.776;9.200;2023-08-30T08:54:12;4.45;;;2.60;;
9485;SDS011;4781;48.776;9.200;2023-08-30T08:56:42;3.98;;;2.40;;
9485;SDS011;4781;48.776;9.200;2023-08-30T08:59:12;4.83;;;2.50;;
9485;SDS011;4781;48.776;9.200;2023-08-30T09:01:41;4.30;;;2.35;;
9485;SDS011;4781;48.776;9.200;2023-08-30T09:04:10;3.98;;;2.50;;
9485;SDS011;4781;48.776;9.200;2023-08-30T09:06:39;4.85;;;2.47;;
9485;SDS011;4781;48.776;9.200;2023-08-30T09:09:09;4.25;;;2.58;;
9485;SDS011;4781;48.776;9.200;2023-08-30T09:11:37;4.25;;;2.55;;
9485;SDS011;4781;48.776;9.200;2023-08-30T09:14:05;4.75;;;2.60;;
9485;SDS011;4781;48.776;9.200;2023-08-30T09:16:36;4.12;;;2.83;;
9485;SDS011;4781;48.776;9.200;2023-08-30T09:19:04;7.03;;;3.40;;
9485;SDS011;4781;48.776;9.200;2023-08-30T09:21:33;4.60;;;2.98;;
9485;SDS011;4781;48.776;9.200;2023-08-30T09:24:05;4.33;;;2.70;;
9485;SDS011;4781;48.776;9.200;2023-08-30T09:26:34;4.45;;;2.50;;
9485;SDS011;4781;48.776;9.200;2023-08-30T09:29:05;4.33;;;2.45;;
9485;SDS011;4781;48.776;9.200;2023-08-30T09:31:35;4.08;;;2.20;;
9485;SDS011;4781;48.776;9.200;2023-08-30T09:34:05;4.03;;;1.90;;
9485;SDS011;4781;48.776;9.200;2023-08-30T09:36:34;2.92;;;1.92;;
9485;SDS011;4781;48.776;9.200;2023-08-30T09:39:07;3.50;;;1.92;;
9485;SDS011;4781;48.776;9.200;2023-08-30T09:41:41;3.55;;;1.90;;
9485;SDS011;4781;48.776;9.200;2023-08-30T09:47:02;3.65;;;2.10;;
9485;SDS011;4781;48.776;9.200;2023-08-30T09:49:33;3.37;;;1.82;;
9485;SDS011;4781;48.776;9.200;2023-08-30T09:52:12;3.17;;;1.80;;
9485;SDS011;4781;48.776;9.200;2023-08-30T09:54:42;3.72;;;1.65;;
9485;SDS011;4781;48.776;9.200;2023-08-30T09:57:12;3.10;;;1.60;;
9485;SDS011;4781;48.776;9.200;2023-08-30T10:00:02;2.90;;;1.65;;
9485;SDS011;4781;48.776;9.200;2023-08-30T10:02:31;3.02;;;1.60;;
9485;SDS011;4781;48.776;9.200;2023-08-30T10:05:00;3.00;;;1.52;;
9485;SDS011;4781;48.776;9.200;2023-08-30T10:07:30;2.50;;;1.57;;
9485;SDS011;4781;48.776;9.200;2023-08-30T10:09:59;2.60;;;1.32;;
9485;SDS011;4781;48.776;9.200;2023-08-30T10:12:33;2.58;;;1.32;;
9485;SDS011;4781;48.776;9.200;2023-08-30T10:15:02;2.25;;;1.30;;
9485;SDS011;4781;48.776;9.200;2023-08-30T10:17:32;1.98;;;1.35;;
9485;SDS011;4781;48.776;9.200;2023-08-30T10:20:03;2.92;;;1.47;;
9485;SDS011;4781;48.776;9.200;2023-08-30T10:22:34;2.30;;;1.40;;
9485;SDS011;4781;48.776;9.200;2023-08-30T10:25:08;2.52;;;1.30;;
9485;SDS011;4781;48.776;9.200;2023-08-30T10:27:43;2.62;;;1.20;;
9485;SDS011;4781;48.776;9.200;2023-08-30T10:30:13;2.00;;;1.17;;
9485;SDS011;4781;48.776;9.200;2023-08-30T10:32:44;2.05;;;1.20;;
9485;SDS011;4781;48.776;9.200;2023-08-30T10:35:13;4.60;;;1.30;;
9485;SDS011;4781;48.776;9.200;2023-08-30T10:37:56;3.27;;;1.55;;
9485;SDS011;4781;48.776;9.200;2023-08-30T10:40:26;2.80;;;1.30;;
9485;SDS011;4781;48.776;9.200;2023-08-30T10:43:01;1.80;;;1.20;;
9485;SDS011;4781;48.776;9.200;2023-08-30T10:45:31;2.37;;;1.30;;
9485;SDS011;4781;48.776;9.200;2023-08-30T10:47:59;1.95;;;1.15;;
9485;SDS011;4781;48.776;9.200;2023-08-30T10:50:30;1.85;;;1.10;;
9485;SDS011;4781;48.776;9.200;2023-08-30T10:53:00;2.15;;;1.12;;
9485;SDS011;4781;48.776;9.200;2023-08-30T10:55:30;2.12;;;1.15;;
9485;SDS011;4781;48.776;9.200;2023-08-30T10:58:03;2.10;;;1.00;;
9485;SDS011;4781;48.776;9.200;2023-08-30T11:00:51;1.45;;;0.90;;
9485;SDS011;4781;48.776;9.200;2023-08-30T11:03:20;1.35;;;0.90;;
9485;SDS011;4781;48.776;9.200;2023-08-30T11:05:49;2.02;;;1.17;;
9485;SDS011;4781;48.776;9.200;2023-08-30T11:08:17;1.57;;;0.85;;
9485;SDS011;4781;48.776;9.200;2023-08-30T11:10:47;2.02;;;1.05;;
9485;SDS011;4781;48.776;9.200;2023-08-30T11:13:15;1.60;;;0.98;;
9485;SDS011;4781;48.776;9.200;2023-08-30T11:15:43;1.98;;;1.02;;
9485;SDS011;4781;48.776;9.200;2023-08-30T11:18:12;1.70;;;1.10;;
9485;SDS011;4781;48.776;9.200;2023-08-30T11:20:40;1.87;;;0.90;;
9485;SDS011;4781;48.776;9.200;2023-08-30T11:23:09;1.92;;;1.15;;
9485;SDS011;4781;48.776;9.200;2023-08-30T11:25:38;1.67;;;1.02;;
9485;SDS011;4781;48.776;9.200;2023-08-30T11:28:06;1.67;;;1.12;;
9485;SDS011;4781;48.776;9.200;2023-08-30T11:30:39;3.92;;;1.20;;
9485;SDS011;4781;48.776;9.200;2023-08-30T11:33:07;3.30;;;1.40;;
9485;SDS011;4781;48.776;9.200;2023-08-30T11:35:36;1.87;;;1.00;;
9485;SDS011;4781;48.776;9.200;2023-08-30T11:38:06;4.90;;;0.90;;
9485;SDS011;4781;48.776;9.200;2023-08-30T11:40:34;1.80;;;1.00;;
9485;SDS011;4781;48.776;9.200;2023-08-30T11:43:03;1.47;;;0.88;;
9485;SDS011;4781;48.776;9.200;2023-08-30T11:45:32;2.12;;;1.00;;
9485;SDS011;4781;48.776;9.200;2023-08-30T11:48:00;2.25;;;1.17;;
9485;SDS011;4781;48.776;9.200;2023-08-30T11:50:29;1.98;;;1.10;;
9485;SDS011;4781;48.776;9.200;2023-08-30T11:52:58;3.35;;;1.40;;
9485;SDS011;4781;48.776;9.200;2023-08-30T11:55:27;2.85;;;1.50;;
9485;SDS011;4781;48.776;9.200;2023-08-30T11:57:55;2.70;;;1.35;;
9485;SDS011;4781;48.776;9.200;2023-08-30T12:00:24;3.15;;;1.75;;
9485;SDS011;4781;48.776;9.200;2023-08-30T12:02:52;2.75;;;1.40;;
9485;SDS011;4781;48.776;9.200;2023-08-30T12:05:21;3.42;;;1.40;;
9485;SDS011;4781;48.776;9.200;2023-08-30T12:07:49;2.42;;;1.40;;
9485;SDS011;4781;48.776;9.200;2023-08-30T12:10:18;2.95;;;1.40;;
9485;SDS011;4781;48.776;9.200;2023-08-30T12:12:46;2.87;;;1.45;;
9485;SDS011;4781;48.776;9.200;2023-08-30T12:15:14;2.50;;;1.40;;
9485;SDS011;4781;48.776;9.200;2023-08-30T12:17:44;2.72;;;1.40;;
9485;SDS011;4781;48.776;9.200;2023-08-30T12:20:16;2.55;;;1.20;;
9485;SDS011;4781;48.776;9.200;2023-08-30T12:22:46;1.70;;;1.10;;
9485;SDS011;4781;48.776;9.200;2023-08-30T12:25:19;2.30;;;1.17;;
9485;SDS011;4781;48.776;9.200;2023-08-30T12:27:52;2.85;;;1.37;;
9485;SDS011;4781;48.776;9.200;2023-08-30T12:30:21;3.00;;;1.60;;
9485;SDS011;4781;48.776;9.200;2023-08-30T12:32:49;2.52;;;1.30;;
9485;SDS011;4781;48.776;9.200;2023-08-30T12:35:19;2.75;;;1.42;;
9485;SDS011;4781;48.776;9.200;2023-08-30T12:37:48;2.20;;;1.30;;
9485;SDS011;4781;48.776;9.200;2023-08-30T12:40:16;3.00;;;1.45;;
9485;SDS011;4781;48.776;9.200;2023-08-30T12:42:44;3.45;;;1.22;;
9485;SDS011;4781;48.776;9.200;2023-08-30T12:45:16;2.35;;;1.37;;
9485;SDS011;4781;48.776;9.200;2023-08-30T12:47:44;2.50;;;1.50;;
9485;SDS011;4781;48.776;9.200;2023-08-30T12:50:13;2.47;;;1.27;;
9485;SDS011;4781;48.776;9.200;2023-08-30T12:52:41;2.40;;;1.40;;
9485;SDS011;4781;48.776;9.200;2023-08-30T12:55:09;2.45;;;1.30;;
9485;SDS011;4781;48.776;9.200;2023-08-30T12:57:38;2.05;;;1.10;;
9485;SDS011;4781;48.776;9.200;2023-08-30T13:00:06;2.60;;;1.47;;
9485;SDS011;4781;48.776;9.200;2023-08-30T13:02:36;2.92;;;1.35;;
9485;SDS011;4781;48.776;9.200;2023-08-30T13:05:04;2.85;;;1.20;;
9485;SDS011;4781;48.776;9.200;2023-08-30T13:07:33;2.47;;;1.30;;
9485;SDS011;4781;48.776;9.200;2023-08-30T13:10:01;2.25;;;1.40;;
9485;SDS011;4781;48.776;9.200;2023-08-30T13:12:30;2.35;;;1.35;;
9485;SDS011;4781;48.776;9.200;2023-08-30T13:14:58;3.22;;;1.30;;
9485;SDS011;4781;48.776;9.200;2023-08-30T13:17:27;2.42;;;1.30;;
9485;SDS011;4781;48.776;9.200;2023-08-30T13:19:55;1.98;;;1.25;;
9485;SDS011;4781;48.776;9.200;2023-08-30T13:22:24;2.95;;;1.30;;
9485;SDS011;4781;48.776;9.200;2023-08-30T13:24:53;2.98;;;1.22;;
9485;SDS011;4781;48.776;9.200;2023-08-30T13:27:21;3.17;;;1.40;;
9485;SDS011;4781;48.776;9.200;2023-08-30T13:29:50;2.98;;;1.50;;
9485;SDS011;4781;48.776;9.200;2023-08-30T13:32:18;2.65;;;1.25;;
9485;SDS011;4781;48.776;9.200;2023-08-30T13:34:46;2.10;;;1.30;;
9485;SDS011;4781;48.776;9.200;2023-08-30T13:37:16;1.95;;;1.30;;
9485;SDS011;4781;48.776;9.200;2023-08-30T13:39:44;1.82;;;1.10;;
9485;SDS011;4781;48.776;9.200;2023-08-30T13:42:13;1.62;;;0.90;;
9485;SDS011;4781;48.776;9.200;2023-08-30T13:44:41;2.20;;;1.05;;
9485;SDS011;4781;48.776;9.200;2023-08-30T13:47:11;3.77;;;1.30;;
9485;SDS011;4781;48.776;9.200;2023-08-30T13:49:41;2.37;;;1.25;;
9485;SDS011;4781;48.776;9.200;2023-08-30T13:52:09;2.60;;;1.17;;
9485;SDS011;4781;48.776;9.200;2023-08-30T13:54:38;2.52;;;1.20;;
9485;SDS011;4781;48.776;9.200;2023-08-30T13:57:06;2.67;;;1.40;;
9485;SDS011;4781;48.776;9.200;2023-08-30T13:59:35;1.42;;;1.00;;
9485;SDS011;4781;48.776;9.200;2023-08-30T14:02:03;2.77;;;1.22;;
9485;SDS011;4781;48.776;9.200;2023-08-30T14:04:32;2.27;;;1.25;;
9485;SDS011;4781;48.776;9.200;2023-08-30T14:07:02;2.02;;;1.17;;
9485;SDS011;4781;48.776;9.200;2023-08-30T14:09:31;2.12;;;1.20;;
9485;SDS011;4781;48.776;9.200;2023-08-30T14:11:59;2.37;;;1.20;;
9485;SDS011;4781;48.776;9.200;2023-08-30T14:14:29;2.17;;;1.12;;
9485;SDS011;4781;48.776;9.200;2023-08-30T14:16:58;2.02;;;1.10;;
9485;SDS011;4781;48.776;9.200;2023-08-30T14:19:26;2.40;;;1.32;;
9485;SDS011;4781;48.776;9.200;2023-08-30T14:21:55;2.02;;;1.07;;
9485;SDS011;4781;48.776;9.200;2023-08-30T14:24:24;2.00;;;1.15;;
9485;SDS011;4781;48.776;9.200;2023-08-30T14:26:52;1.50;;;1.00;;
9485;SDS011;4781;48.776;9.200;2023-08-30T14:29:20;2.35;;;1.17;;
9485;SDS011;4781;48.776;9.200;2023-08-30T14:31:49;2.67;;;1.27;;
9485;SDS011;4781;48.776;9.200;2023-08-30T14:34:17;1.52;;;1.00;;
9485;SDS011;4781;48.776;9.200;2023-08-30T14:36:47;1.90;;;1.00;;
9485;SDS011;4781;48.776;9.200;2023-08-30T14:39:15;1.95;;;1.05;;
9485;SDS011;4781;48.776;9.200;2023-08-30T14:41:44;2.42;;;1.02;;
9485;SDS011;4781;48.776;9.200;2023-08-30T14:44:12;1.87;;;1.00;;
9485;SDS011;4781;48.776;9.200;2023-08-30T14:46:41;2.33;;;1.17;;
9485;SDS011;4781;48.776;9.200;2023-08-30T14:49:09;1.52;;;1.00;;
9485;SDS011;4781;48.776;9.200;2023-08-30T14:51:38;1.75;;;1.00;;
9485;SDS011;4781;48.776;9.200;2023-08-30T14:54:06;2.67;;;1.25;;
9485;SDS011;4781;48.776;9.200;2023-08-30T14:56:35;1.92;;;1.00;;
9485;SDS011;4781;48.776;9.200;2023-08-30T14:59:04;1.85;;;1.00;;
9485;SDS011;4781;48.776;9.200;2023-08-30T15:01:32;2.30;;;1.30;;
9485;SDS011;4781;48.776;9.200;2023-08-30T15:04:00;2.35;;;1.22;;
9485;SDS011;4781;48.776;9.200;2023-08-30T15:06:29;2.12;;;1.17;;
9485;SDS011;4781;48.776;9.200;2023-08-30T15:08:57;2.00;;;1.10;;
9485;SDS011;4781;48.776;9.200;2023-08-30T15:11:27;2.33;;;1.07;;
9485;SDS011;4781;48.776;9.200;2023-08-30T15:13:55;2.87;;;1.52;;
9485;SDS011;4781;48.776;9.200;2023-08-30T15:16:24;2.50;;;1.42;;
9485;SDS011;4781;48.776;9.200;2023-08-30T15:18:52;2.77;;;1.22;;
9485;SDS011;4781;48.776;9.200;2023-08-30T15:21:20;2.17;;;1.20;;
9485;SDS011;4781;48.776;9.200;2023-08-30T15:23:49;2.92;;;1.30;;
9485;SDS011;4781;48.776;9.200;2023-08-30T15:26:17;2.15;;;1.17;;
9485;SDS011;4781;48.776;9.200;2023-08-30T15:28:47;1.85;;;0.98;;
9485;SDS011;4781;48.776;9.200;2023-08-30T15:31:16;2.12;;;1.20;;
9485;SDS011;4781;48.776;9.200;2023-08-30T15:33:48;2.10;;;1.30;;
9485;SDS011;4781;48.776;9.200;2023-08-30T15:36:16;2.20;;;1.30;;